sensor_id;sensor_type;location;lat;lon;timestamp;pressure;altitude;pressure_sealevel;temperature;humidity
39141;BME280;24875;48.436;10.298;2023-10-09T00:01:01;96930.34;;;14.93;100.00
39141;BME280;24875;48.436;10.298;2023-10-09T00:03:38;96923.94;;;14.88;100.00
39141;BME280;24875;48.436;10.298;2023-10-09T00:06:06;96926.06;;;14.92;100.00
39141;BME280;24875;48.436;10.298;2023-10-09T00:08:35;96922.25;;;14.80;100.00
39141;BME280;24875;48.436;10.298;2023-10-09T00:11:04;96925.59;;;14.54;100.00
39141;BME280;24875;48.436;10.298;2023-10-09T00:13:42;96917.28;;;14.42;100.00
39141;BME280;24875;48.436;10.298;2023-10-09T00:16:15;96918.97;;;14.50;100.00
39141;BME280;24875;48.436;10.298;2023-10-09T00:18:49;96905.47;;;14.30;100.00
39141;BME280;24875;48.436;10.298;2023-10-09T00:21:17;96904.56;;;14.38;100.00
39141;BME280;24875;48.436;10.298;2023-10-09T00:23:45;96907.03;;;14.25;100.00
39141;BME280;24875;48.436;10.298;2023-10-09T00:26:18;96904.38;;;14.10;100.00
39141;BME280;24875;48.436;10.298;2023-10-09T00:28:46;96900.09;;;14.09;100.00
39141;BME280;24875;48.436;10.298;2023-10-09T00:31:13;96900.25;;;14.22;100.00
39141;BME280;24875;48.436;10.298;2023-10-09T00:33:41;96897.53;;;14.16;100.00
39141;BME280;24875;48.436;10.298;2023-10-09T00:36:08;96896.97;;;14.20;100.00
39141;BME280;24875;48.436;10.298;2023-10-09T00:38:44;96890.41;;;14.31;100.00
39141;BME280;24875;48.436;10.298;2023-10-09T00:41:14;96888.47;;;14.25;100.00
39141;BME280;24875;48.436;10.298;2023-10-09T00:43:45;96883.97;;;14.25;100.00
39141;BME280;24875;48.436;10.298;2023-10-09T00:46:16;96883.72;;;14.35;100.00
39141;BME280;24875;48.436;10.298;2023-10-09T00:48:50;96882.97;;;14.41;100.00
39141;BME280;24875;48.436;10.298;2023-10-09T00:51:19;96877.03;;;14.39;100.00
39141;BME280;24875;48.436;10.298;2023-10-09T00:53:49;96869.53;;;14.28;100.00
39141;BME280;24875;48.436;10.298;2023-10-09T00:56:17;96860.69;;;14.21;100.00
39141;BME280;24875;48.436;10.298;2023-10-09T00:58:55;96865.41;;;14.25;100.00
39141;BME280;24875;48.436;10.298;2023-10-09T01:01:26;96868.38;;;14.16;100.00
39141;BME280;24875;48.436;10.298;2023-10-09T01:04:00;96865.59;;;14.24;100.00
39141;BME280;24875;48.436;10.298;2023-10-09T01:06:36;96851.47;;;14.17;100.00
39141;BME280;24875;48.436;10.298;2023-10-09T01:09:10;96862.25;;;14.15;100.00
39141;BME280;24875;48.436;10.298;2023-10-09T01:11:37;96849.53;;;14.11;100.00
39141;BME280;24875;48.436;10.298;2023-10-09T01:14:13;96846.13;;;14.02;100.00
39141;BME280;24875;48.436;10.298;2023-10-09T01:16:40;96846.31;;;14.01;100.00
39141;BME280;24875;48.436;10.298;2023-10-09T01:19:11;96839.09;;;13.95;100.00
39141;BME280;24875;48.436;10.298;2023-10-09T01:21:49;96846.03;;;13.96;100.00
39141;BME280;24875;48.436;10.298;2023-10-09T01:24:17;96847.88;;;14.10;100.00
39141;BME280;24875;48.436;10.298;2023-10-09T01:26:45;96846.13;;;14.02;100.00
39141;BME280;24875;48.436;10.298;2023-10-09T01:29:13;96845.22;;;14.10;100.00
39141;BME280;24875;48.436;10.298;2023-10-09T01:31:42;96845.31;;;14.02;100.00
39141;BME280;24875;48.436;10.298;2023-10-09T01:34:17;96834.97;;;14.07;100.00
39141;BME280;24875;48.436;10.298;2023-10-09T01:36:44;96838.72;;;13.98;100.00
39141;BME280;24875;48.436;10.298;2023-10-09T01:39:14;96837.81;;;13.91;100.00
39141;BME280;24875;48.436;10.298;2023-10-09T01:41:50;96837.34;;;14.02;100.00
39141;BME280;24875;48.436;10.298;2023-10-09T01:44:23;96835.91;;;13.85;100.00
39141;BME280;24875;48.436;10.298;2023-10-09T01:46:51;96837.47;;;13.94;100.00
39141;BME280;24875;48.436;10.298;2023-10-09T01:49:20;96839.09;;;13.95;100.00
39141;BME280;24875;48.436;10.298;2023-10-09T01:51:54;96831.97;;;13.96;100.00
39141;BME280;24875;48.436;10.298;2023-10-09T01:54:25;96827.66;;;13.95;100.00
39141;BME280;24875;48.436;10.298;2023-10-09T01:57:04;96827.97;;;14.14;100.00
39141;BME280;24875;48.436;10.298;2023-10-09T01:59:35;96829.41;;;14.02;100.00
39141;BME280;24875;48.436;10.298;2023-10-09T02:02:04;96825.75;;;14.03;100.00
39141;BME280;24875;48.436;10.298;2023-10-09T02:04:50;96819.72;;;13.95;100.00
39141;BME280;24875;48.436;10.298;2023-10-09T02:07:16;96816.88;;;13.96;100.00
39141;BME280;24875;48.436;10.298;2023-10-09T02:09:47;96818.44;;;14.05;100.00
39141;BME280;24875;48.436;10.298;2023-10-09T02:12:15;96819.94;;;14.22;100.00
39141;BME280;24875;48.436;10.298;2023-10-09T02:14:43;96813.34;;;14.18;100.00
39141;BME280;24875;48.436;10.298;2023-10-09T02:17:09;96812.13;;;14.20;100.00
39141;BME280;24875;48.436;10.298;2023-10-09T02:19:44;96813.88;;;14.28;100.00
39141;BME280;24875;48.436;10.298;2023-10-09T02:22:13;96814.31;;;14.31;100.00
39141;BME280;24875;48.436;10.298;2023-10-09T02:24:41;96816.78;;;14.33;100.00
39141;BME280;24875;48.436;10.298;2023-10-09T02:27:16;96805.91;;;14.42;100.00
39141;BME280;24875;48.436;10.298;2023-10-09T02:30:07;96813.75;;;14.50;100.00
39141;BME280;24875;48.436;10.298;2023-10-09T02:32:44;96816.19;;;14.52;100.00
39141;BME280;24875;48.436;10.298;2023-10-09T02:35:14;96814.53;;;14.51;100.00
39141;BME280;24875;48.436;10.298;2023-10-09T02:38:01;96812.00;;;14.43;100.00
39141;BME280;24875;48.436;10.298;2023-10-09T02:40:29;96804.44;;;14.40;100.00
39141;BME280;24875;48.436;10.298;2023-10-09T02:43:07;96799.41;;;14.45;100.00
39141;BME280;24875;48.436;10.298;2023-10-09T02:45:37;96797.09;;;14.42;100.00
39141;BME280;24875;48.436;10.298;2023-10-09T02:48:15;96795.28;;;14.42;100.00
39141;BME280;24875;48.436;10.298;2023-10-09T02:50:44;96804.19;;;14.35;100.00
39141;BME280;24875;48.436;10.298;2023-10-09T02:53:11;96794.38;;;14.35;100.00
39141;BME280;24875;48.436;10.298;2023-10-09T02:55:44;96799.69;;;14.35;100.00
39141;BME280;24875;48.436;10.298;2023-10-09T02:58:30;96790.16;;;14.41;100.00
39141;BME280;24875;48.436;10.298;2023-10-09T03:01:02;96797.03;;;14.35;100.00
39141;BME280;24875;48.436;10.298;2023-10-09T03:03:28;96789.47;;;14.32;100.00
39141;BME280;24875;48.436;10.298;2023-10-09T03:05:55;96793.19;;;14.38;100.00
39141;BME280;24875;48.436;10.298;2023-10-09T03:08:21;96787.00;;;14.31;100.00
39141;BME280;24875;48.436;10.298;2023-10-09T03:10:47;96788.19;;;14.28;100.00
39141;BME280;24875;48.436;10.298;2023-10-09T03:13:14;96784.81;;;14.20;100.00
39141;BME280;24875;48.436;10.298;2023-10-09T03:15:46;96787.69;;;14.39;100.00
39141;BME280;24875;48.436;10.298;2023-10-09T03:18:13;96793.91;;;14.32;100.00
39141;BME280;24875;48.436;10.298;2023-10-09T03:20:40;96794.22;;;14.22;100.00
39141;BME280;24875;48.436;10.298;2023-10-09T03:23:07;96789.38;;;14.26;100.00
39141;BME280;24875;48.436;10.298;2023-10-09T03:25:35;96785.75;;;14.12;100.00
39141;BME280;24875;48.436;10.298;2023-10-09T03:28:03;96780.78;;;14.24;100.00
39141;BME280;24875;48.436;10.298;2023-10-09T03:30:30;96784.09;;;14.26;100.00
39141;BME280;24875;48.436;10.298;2023-10-09T03:32:59;96782.19;;;14.41;100.00
39141;BME280;24875;48.436;10.298;2023-10-09T03:35:27;96790.13;;;14.20;100.00
39141;BME280;24875;48.436;10.298;2023-10-09T03:37:58;96777.66;;;14.35;100.00
39141;BME280;24875;48.436;10.298;2023-10-09T03:40:26;96777.72;;;14.41;100.00
39141;BME280;24875;48.436;10.298;2023-10-09T03:42:53;96783.09;;;14.48;100.00
39141;BME280;24875;48.436;10.298;2023-10-09T03:45:20;96775.88;;;14.56;100.00
39141;BME280;24875;48.436;10.298;2023-10-09T03:47:52;96768.84;;;14.69;100.00
39141;BME280;24875;48.436;10.298;2023-10-09T03:50:24;96776.13;;;14.82;100.00
39141;BME280;24875;48.436;10.298;2023-10-09T03:53:02;96772.25;;;14.84;100.00
39141;BME280;24875;48.436;10.298;2023-10-09T03:55:32;96779.78;;;14.81;100.00
39141;BME280;24875;48.436;10.298;2023-10-09T03:57:58;96784.41;;;14.93;100.00
39141;BME280;24875;48.436;10.298;2023-10-09T04:00:28;96777.81;;;15.10;100.00
39141;BME280;24875;48.436;10.298;2023-10-09T04:02:55;96780.06;;;15.13;100.00
39141;BME280;24875;48.436;10.298;2023-10-09T04:05:23;96778.06;;;15.15;100.00
39141;BME280;24875;48.436;10.298;2023-10-09T04:07:50;96774.50;;;15.08;100.00
39141;BME280;24875;48.436;10.298;2023-10-09T04:10:19;96771.72;;;15.16;100.00
39141;BME280;24875;48.436;10.298;2023-10-09T04:13:16;96765.38;;;15.17;100.00
39141;BME280;24875;48.436;10.298;2023-10-09T04:15:48;96773.34;;;15.17;100.00
39141;BME280;24875;48.436;10.298;2023-10-09T04:18:15;96769.44;;;15.13;100.00
39141;BME280;24875;48.436;10.298;2023-10-09T04:20:43;96774.66;;;15.21;100.00
39141;BME280;24875;48.436;10.298;2023-10-09T04:23:26;96764.53;;;15.10;100.00
39141;BME280;24875;48.436;10.298;2023-10-09T04:26:01;96761.28;;;15.15;100.00
39141;BME280;24875;48.436;10.298;2023-10-09T04:28:36;96759.25;;;15.17;100.00
39141;BME280;24875;48.436;10.298;2023-10-09T04:31:02;96761.28;;;15.15;100.00
39141;BME280;24875;48.436;10.298;2023-10-09T04:33:31;96752.75;;;15.19;100.00
39141;BME280;24875;48.436;10.298;2023-10-09T04:36:09;96756.63;;;15.44;100.00
39141;BME280;24875;48.436;10.298;2023-10-09T04:38:47;96760.22;;;15.30;100.00
39141;BME280;24875;48.436;10.298;2023-10-09T04:41:21;96762.66;;;15.25;100.00
39141;BME280;24875;48.436;10.298;2023-10-09T04:43:53;96760.00;;;15.25;100.00
39141;BME280;24875;48.436;10.298;2023-10-09T04:46:29;96760.72;;;15.19;100.00
39141;BME280;24875;48.436;10.298;2023-10-09T04:49:08;96764.66;;;15.23;100.00
39141;BME280;24875;48.436;10.298;2023-10-09T04:51:53;96757.59;;;15.30;100.00
39141;BME280;24875;48.436;10.298;2023-10-09T04:54:30;96765.38;;;15.17;100.00
39141;BME280;24875;48.436;10.298;2023-10-09T04:57:04;96759.22;;;15.10;100.00
39141;BME280;24875;48.436;10.298;2023-10-09T04:59:43;96761.22;;;15.08;100.00
39141;BME280;24875;48.436;10.298;2023-10-09T05:02:13;96767.38;;;15.09;100.00
39141;BME280;24875;48.436;10.298;2023-10-09T05:04:45;96772.00;;;15.21;100.00
39141;BME280;24875;48.436;10.298;2023-10-09T05:07:14;96777.63;;;15.32;100.00
39141;BME280;24875;48.436;10.298;2023-10-09T05:09:49;96775.19;;;15.17;100.00
39141;BME280;24875;48.436;10.298;2023-10-09T05:12:31;96767.44;;;15.15;100.00
39141;BME280;24875;48.436;10.298;2023-10-09T05:14:57;96774.19;;;15.18;100.00
39141;BME280;24875;48.436;10.298;2023-10-09T05:17:34;96769.84;;;15.10;100.00
39141;BME280;24875;48.436;10.298;2023-10-09T05:20:01;96773.50;;;15.09;100.00
39141;BME280;24875;48.436;10.298;2023-10-09T05:22:47;96775.28;;;15.23;100.00
39141;BME280;24875;48.436;10.298;2023-10-09T05:25:24;96775.19;;;15.17;100.00
39141;BME280;24875;48.436;10.298;2023-10-09T05:28:11;96769.69;;;15.18;100.00
39141;BME280;24875;48.436;10.298;2023-10-09T05:30:57;96775.31;;;15.29;100.00
39141;BME280;24875;48.436;10.298;2023-10-09T05:33:32;96773.06;;;15.26;100.00
39141;BME280;24875;48.436;10.298;2023-10-09T05:36:03;96768.09;;;15.44;100.00
39141;BME280;24875;48.436;10.298;2023-10-09T05:38:57;96774.69;;;15.55;100.00
39141;BME280;24875;48.436;10.298;2023-10-09T05:41:41;96772.56;;;15.44;100.00
39141;BME280;24875;48.436;10.298;2023-10-09T05:44:27;96773.66;;;15.49;100.00
39141;BME280;24875;48.436;10.298;2023-10-09T05:47:11;96771.41;;;15.53;100.00
39141;BME280;24875;48.436;10.298;2023-10-09T05:49:58;96765.25;;;15.46;100.00
39141;BME280;24875;48.436;10.298;2023-10-09T05:52:50;96776.72;;;15.53;100.00
39141;BME280;24875;48.436;10.298;2023-10-09T05:55:31;96778.84;;;15.64;100.00
39141;BME280;24875;48.436;10.298;2023-10-09T05:58:15;96784.56;;;15.61;100.00
39141;BME280;24875;48.436;10.298;2023-10-09T06:01:00;96770.63;;;15.59;100.00
39141;BME280;24875;48.436;10.298;2023-10-09T06:03:46;96773.28;;;15.59;100.00
39141;BME280;24875;48.436;10.298;2023-10-09T06:06:19;96781.75;;;15.69;100.00
39141;BME280;24875;48.436;10.298;2023-10-09T06:08:58;96788.94;;;15.75;100.00
39141;BME280;24875;48.436;10.298;2023-10-09T06:12:02;96791.22;;;15.84;100.00
39141;BME280;24875;48.436;10.298;2023-10-09T06:14:54;96799.81;;;15.80;100.00
39141;BME280;24875;48.436;10.298;2023-10-09T06:17:44;96798.06;;;15.99;100.00
39141;BME280;24875;48.436;10.298;2023-10-09T06:20:15;96801.97;;;16.03;100.00
39141;BME280;24875;48.436;10.298;2023-10-09T06:23:00;96803.25;;;16.14;100.00
39141;BME280;24875;48.436;10.298;2023-10-09T06:25:42;96801.44;;;16.21;100.00
39141;BME280;24875;48.436;10.298;2023-10-09T06:28:18;96804.63;;;16.37;100.00
39141;BME280;24875;48.436;10.298;2023-10-09T06:30:58;96805.81;;;16.28;100.00
39141;BME280;24875;48.436;10.298;2023-10-09T06:33:44;96806.66;;;16.35;100.00
39141;BME280;24875;48.436;10.298;2023-10-09T06:36:33;96808.22;;;16.23;100.00
39141;BME280;24875;48.436;10.298;2023-10-09T06:38:59;96813.84;;;16.41;100.00
39141;BME280;24875;48.436;10.298;2023-10-09T06:41:54;96815.72;;;16.47;100.00
39141;BME280;24875;48.436;10.298;2023-10-09T06:44:35;96808.41;;;16.68;100.00
39141;BME280;24875;48.436;10.298;2023-10-09T06:47:16;96817.00;;;16.64;100.00
39141;BME280;24875;48.436;10.298;2023-10-09T06:49:43;96816.25;;;16.83;100.00
39141;BME280;24875;48.436;10.298;2023-10-09T06:52:29;96814.81;;;16.87;100.00
39141;BME280;24875;48.436;10.298;2023-10-09T06:55:19;96816.66;;;16.99;100.00
39141;BME280;24875;48.436;10.298;2023-10-09T06:57:57;96823.03;;;17.11;100.00
39141;BME280;24875;48.436;10.298;2023-10-09T07:00:28;96819.41;;;17.25;100.00
39141;BME280;24875;48.436;10.298;2023-10-09T07:03:12;96814.09;;;17.31;100.00
39141;BME280;24875;48.436;10.298;2023-10-09T07:05:39;96810.59;;;17.37;100.00
39141;BME280;24875;48.436;10.298;2023-10-09T07:08:25;96815.53;;;17.40;100.00
39141;BME280;24875;48.436;10.298;2023-10-09T07:10:57;96819.63;;;17.49;100.00
39141;BME280;24875;48.436;10.298;2023-10-09T07:13:44;96819.19;;;17.52;100.00
39141;BME280;24875;48.436;10.298;2023-10-09T07:16:21;96818.38;;;17.71;100.00
39141;BME280;24875;48.436;10.298;2023-10-09T07:18:53;96815.69;;;17.71;100.00
39141;BME280;24875;48.436;10.298;2023-10-09T07:21:20;96814.25;;;17.75;100.00
39141;BME280;24875;48.436;10.298;2023-10-09T07:23:54;96816.72;;;17.70;100.00
39141;BME280;24875;48.436;10.298;2023-10-09T07:26:22;96812.22;;;17.64;100.00
39141;BME280;24875;48.436;10.298;2023-10-09T07:29:03;96808.13;;;17.68;100.00
39141;BME280;24875;48.436;10.298;2023-10-09T07:31:42;96807.88;;;17.89;100.00
39141;BME280;24875;48.436;10.298;2023-10-09T07:34:11;96810.78;;;17.55;100.00
39141;BME280;24875;48.436;10.298;2023-10-09T07:36:55;96802.38;;;17.65;100.00
39141;BME280;24875;48.436;10.298;2023-10-09T07:39:22;96807.91;;;17.76;100.00
39141;BME280;24875;48.436;10.298;2023-10-09T07:41:49;96812.22;;;17.77;100.00
39141;BME280;24875;48.436;10.298;2023-10-09T07:44:27;96815.06;;;17.75;100.00
39141;BME280;24875;48.436;10.298;2023-10-09T07:47:05;96821.00;;;17.84;100.00
39141;BME280;24875;48.436;10.298;2023-10-09T07:49:43;96828.59;;;17.87;100.00
39141;BME280;24875;48.436;10.298;2023-10-09T07:52:15;96821.19;;;18.02;100.00
39141;BME280;24875;48.436;10.298;2023-10-09T07:54:42;96817.09;;;17.93;100.00
39141;BME280;24875;48.436;10.298;2023-10-09T07:57:16;96821.19;;;18.02;100.00
39141;BME280;24875;48.436;10.298;2023-10-09T07:59:42;96828.59;;;18.00;100.00
39141;BME280;24875;48.436;10.298;2023-10-09T08:02:21;96825.69;;;18.08;100.00
39141;BME280;24875;48.436;10.298;2023-10-09T08:04:57;96827.94;;;18.11;100.00
39141;BME280;24875;48.436;10.298;2023-10-09T08:07:28;96826.94;;;17.99;100.00
39141;BME280;24875;48.436;10.298;2023-10-09T08:10:01;96822.22;;;18.01;100.00
39141;BME280;24875;48.436;10.298;2023-10-09T08:12:45;96824.66;;;18.02;100.00
39141;BME280;24875;48.436;10.298;2023-10-09T08:15:25;96828.56;;;18.19;100.00
39141;BME280;24875;48.436;10.298;2023-10-09T08:17:56;96828.94;;;18.35;100.00
39141;BME280;24875;48.436;10.298;2023-10-09T08:20:29;96821.13;;;18.28;100.00
39141;BME280;24875;48.436;10.298;2023-10-09T08:23:16;96825.03;;;18.25;100.00
39141;BME280;24875;48.436;10.298;2023-10-09T08:25:58;96825.97;;;18.56;100.00
39141;BME280;24875;48.436;10.298;2023-10-09T08:28:37;96821.13;;;18.34;100.00
39141;BME280;24875;48.436;10.298;2023-10-09T08:31:09;96829.84;;;18.60;100.00
39141;BME280;24875;48.436;10.298;2023-10-09T08:33:45;96828.56;;;18.69;100.00
39141;BME280;24875;48.436;10.298;2023-10-09T08:36:22;96832.97;;;18.57;100.00
39141;BME280;24875;48.436;10.298;2023-10-09T08:38:53;96833.88;;;18.76;100.00
39141;BME280;24875;48.436;10.298;2023-10-09T08:41:23;96837.53;;;18.81;100.00
39141;BME280;24875;48.436;10.298;2023-10-09T08:43:56;96838.97;;;18.84;100.00
39141;BME280;24875;48.436;10.298;2023-10-09T08:46:23;96830.56;;;18.87;100.00
39141;BME280;24875;48.436;10.298;2023-10-09T08:48:54;96832.31;;;18.99;100.00
39141;BME280;24875;48.436;10.298;2023-10-09T08:51:20;96822.75;;;19.22;100.00
39141;BME280;24875;48.436;10.298;2023-10-09T08:53:48;96834.78;;;19.38;100.00
39141;BME280;24875;48.436;10.298;2023-10-09T08:56:16;96830.47;;;19.61;100.00
39141;BME280;24875;48.436;10.298;2023-10-09T08:58:48;96830.13;;;19.51;100.00
39141;BME280;24875;48.436;10.298;2023-10-09T09:01:16;96830.84;;;19.64;100.00
39141;BME280;24875;48.436;10.298;2023-10-09T09:03:46;96832.75;;;19.57;100.00
39141;BME280;24875;48.436;10.298;2023-10-09T09:06:14;96841.84;;;20.05;100.00
39141;BME280;24875;48.436;10.298;2023-10-09T09:08:46;96838.13;;;20.06;100.00
39141;BME280;24875;48.436;10.298;2023-10-09T09:11:15;96846.25;;;20.18;100.00
39141;BME280;24875;48.436;10.298;2023-10-09T09:13:44;96848.22;;;20.04;100.00
39141;BME280;24875;48.436;10.298;2023-10-09T09:16:18;96848.75;;;19.88;100.00
39141;BME280;24875;48.436;10.298;2023-10-09T09:18:52;96849.47;;;20.02;100.00
39141;BME280;24875;48.436;10.298;2023-10-09T09:21:28;96844.66;;;20.10;100.00
39141;BME280;24875;48.436;10.298;2023-10-09T09:23:57;96854.50;;;19.92;100.00
39141;BME280;24875;48.436;10.298;2023-10-09T09:26:36;96853.66;;;20.16;100.00
39141;BME280;24875;48.436;10.298;2023-10-09T09:29:04;96854.38;;;19.80;100.00
39141;BME280;24875;48.436;10.298;2023-10-09T09:31:33;96857.28;;;20.03;100.00
39141;BME280;24875;48.436;10.298;2023-10-09T09:34:04;96859.09;;;20.27;100.00
39141;BME280;24875;48.436;10.298;2023-10-09T09:36:55;96860.75;;;20.46;100.00
39141;BME280;24875;48.436;10.298;2023-10-09T09:39:23;96858.88;;;20.28;100.00
39141;BME280;24875;48.436;10.298;2023-10-09T09:41:58;96860.91;;;20.69;100.00
39141;BME280;24875;48.436;10.298;2023-10-09T09:44:32;96857.69;;;20.42;100.00
39141;BME280;24875;48.436;10.298;2023-10-09T09:47:09;96864.78;;;20.55;100.00
39141;BME280;24875;48.436;10.298;2023-10-09T09:49:41;96856.88;;;20.60;100.00
39141;BME280;24875;48.436;10.298;2023-10-09T09:52:09;96854.72;;;20.50;100.00
39141;BME280;24875;48.436;10.298;2023-10-09T09:54:37;96859.59;;;20.78;100.00
39141;BME280;24875;48.436;10.298;2023-10-09T09:57:05;96858.75;;;20.77;100.00
39141;BME280;24875;48.436;10.298;2023-10-09T09:59:38;96858.97;;;20.93;100.00
39141;BME280;24875;48.436;10.298;2023-10-09T10:02:20;96854.78;;;20.97;100.00
39141;BME280;24875;48.436;10.298;2023-10-09T10:04:54;96856.53;;;21.21;100.00
39141;BME280;24875;48.436;10.298;2023-10-09T10:07:24;96865.16;;;21.23;100.00
39141;BME280;24875;48.436;10.298;2023-10-09T10:09:54;96875.59;;;21.13;100.00
39141;BME280;24875;48.436;10.298;2023-10-09T10:12:49;96870.91;;;21.67;100.00
39141;BME280;24875;48.436;10.298;2023-10-09T10:15:59;96886.44;;;21.65;100.00
39141;BME280;24875;48.436;10.298;2023-10-09T10:18:52;96885.16;;;21.68;100.00
39141;BME280;24875;48.436;10.298;2023-10-09T10:21:20;96880.88;;;21.49;100.00
39141;BME280;24875;48.436;10.298;2023-10-09T10:24:00;96880.25;;;21.47;100.00
39141;BME280;24875;48.436;10.298;2023-10-09T10:26:32;96877.81;;;21.45;100.00
39141;BME280;24875;48.436;10.298;2023-10-09T10:29:16;96861.94;;;21.73;100.00
39141;BME280;24875;48.436;10.298;2023-10-09T10:31:53;96869.38;;;21.71;100.00
39141;BME280;24875;48.436;10.298;2023-10-09T10:34:21;96871.34;;;21.53;100.00
39141;BME280;24875;48.436;10.298;2023-10-09T10:36:49;96869.25;;;21.55;100.00
39141;BME280;24875;48.436;10.298;2023-10-09T10:39:19;96862.44;;;21.82;100.00
39141;BME280;24875;48.436;10.298;2023-10-09T10:41:54;96861.88;;;22.25;100.00
39141;BME280;24875;48.436;10.298;2023-10-09T10:44:25;96860.00;;;22.37;100.00
39141;BME280;24875;48.436;10.298;2023-10-09T10:47:10;96862.66;;;22.03;100.00
39141;BME280;24875;48.436;10.298;2023-10-09T10:49:49;96863.63;;;22.20;100.00
39141;BME280;24875;48.436;10.298;2023-10-09T10:52:20;96858.72;;;22.40;100.00
39141;BME280;24875;48.436;10.298;2023-10-09T10:54:49;96861.53;;;22.33;100.00
39141;BME280;24875;48.436;10.298;2023-10-09T10:57:35;96863.97;;;22.46;100.00
39141;BME280;24875;48.436;10.298;2023-10-09T11:00:19;96862.91;;;22.24;100.00
39141;BME280;24875;48.436;10.298;2023-10-09T11:03:04;96860.09;;;22.19;100.00
39141;BME280;24875;48.436;10.298;2023-10-09T11:05:43;96856.13;;;22.10;100.00
39141;BME280;24875;48.436;10.298;2023-10-09T11:08:17;96863.88;;;22.30;100.00
39141;BME280;24875;48.436;10.298;2023-10-09T11:10:50;96855.34;;;22.44;100.00
39141;BME280;24875;48.436;10.298;2023-10-09T11:13:22;96856.16;;;22.45;100.00
39141;BME280;24875;48.436;10.298;2023-10-09T11:15:56;96854.03;;;22.24;100.00
39141;BME280;24875;48.436;10.298;2023-10-09T11:18:40;96842.25;;;22.36;100.00
39141;BME280;24875;48.436;10.298;2023-10-09T11:21:13;96847.06;;;22.46;100.00
39141;BME280;24875;48.436;10.298;2023-10-09T11:23:57;96851.22;;;22.65;100.00
39141;BME280;24875;48.436;10.298;2023-10-09T11:26:40;96846.16;;;22.68;100.00
39141;BME280;24875;48.436;10.298;2023-10-09T11:29:09;96849.69;;;22.68;99.34
39141;BME280;24875;48.436;10.298;2023-10-09T11:31:58;96844.63;;;22.72;98.69
39141;BME280;24875;48.436;10.298;2023-10-09T11:34:25;96838.44;;;22.83;98.49
39141;BME280;24875;48.436;10.298;2023-10-09T11:36:59;96838.13;;;23.07;99.17
39141;BME280;24875;48.436;10.298;2023-10-09T11:39:28;96837.53;;;23.17;98.19
39141;BME280;24875;48.436;10.298;2023-10-09T11:42:05;96830.56;;;22.93;99.73
39141;BME280;24875;48.436;10.298;2023-10-09T11:44:38;96819.03;;;23.20;97.48
39141;BME280;24875;48.436;10.298;2023-10-09T11:47:07;96812.78;;;23.03;98.18
39141;BME280;24875;48.436;10.298;2023-10-09T11:49:51;96816.28;;;23.04;98.97
39141;BME280;24875;48.436;10.298;2023-10-09T11:52:54;96811.53;;;23.22;97.78
39141;BME280;24875;48.436;10.298;2023-10-09T11:55:34;96838.63;;;22.93;98.54
39141;BME280;24875;48.436;10.298;2023-10-09T11:58:02;96821.22;;;22.95;96.45
39141;BME280;24875;48.436;10.298;2023-10-09T12:00:30;96823.25;;;23.16;97.56
39141;BME280;24875;48.436;10.298;2023-10-09T12:03:08;96820.50;;;23.00;99.41
39141;BME280;24875;48.436;10.298;2023-10-09T12:05:34;96825.59;;;22.85;97.56
39141;BME280;24875;48.436;10.298;2023-10-09T12:08:02;96831.97;;;22.95;97.44
39141;BME280;24875;48.436;10.298;2023-10-09T12:10:34;96839.34;;;23.00;95.44
39141;BME280;24875;48.436;10.298;2023-10-09T12:13:06;96837.03;;;23.20;96.95
39141;BME280;24875;48.436;10.298;2023-10-09T12:15:33;96839.47;;;22.82;98.99
39141;BME280;24875;48.436;10.298;2023-10-09T12:18:07;96831.63;;;23.31;97.76
39141;BME280;24875;48.436;10.298;2023-10-09T12:20:41;96826.88;;;23.38;97.10
39141;BME280;24875;48.436;10.298;2023-10-09T12:23:14;96822.81;;;23.35;97.15
39141;BME280;24875;48.436;10.298;2023-10-09T12:25:41;96819.16;;;23.41;96.80
39141;BME280;24875;48.436;10.298;2023-10-09T12:28:12;96824.69;;;23.95;96.87
39141;BME280;24875;48.436;10.298;2023-10-09T12:30:39;96826.47;;;23.74;95.74
39141;BME280;24875;48.436;10.298;2023-10-09T12:33:07;96838.81;;;23.58;95.17
39141;BME280;24875;48.436;10.298;2023-10-09T12:35:38;96840.69;;;23.86;96.09
39141;BME280;24875;48.436;10.298;2023-10-09T12:38:05;96828.22;;;23.68;94.17
39141;BME280;24875;48.436;10.298;2023-10-09T12:40:36;96824.69;;;23.79;95.96
39141;BME280;24875;48.436;10.298;2023-10-09T12:43:05;96816.25;;;23.59;92.73
39141;BME280;24875;48.436;10.298;2023-10-09T12:45:42;96813.75;;;23.69;95.32
39141;BME280;24875;48.436;10.298;2023-10-09T12:48:08;96815.09;;;23.11;94.97
39141;BME280;24875;48.436;10.298;2023-10-09T12:50:35;96804.88;;;23.25;95.89
39141;BME280;24875;48.436;10.298;2023-10-09T12:53:07;96799.31;;;23.15;98.85
39141;BME280;24875;48.436;10.298;2023-10-09T12:55:37;96782.19;;;22.93;100.00
39141;BME280;24875;48.436;10.298;2023-10-09T12:58:06;96775.16;;;22.64;100.00
39141;BME280;24875;48.436;10.298;2023-10-09T13:00:34;96782.13;;;22.37;100.00
39141;BME280;24875;48.436;10.298;2023-10-09T13:03:05;96775.09;;;22.48;100.00
39141;BME280;24875;48.436;10.298;2023-10-09T13:05:45;96778.03;;;22.35;100.00
39141;BME280;24875;48.436;10.298;2023-10-09T13:08:21;96789.84;;;22.11;100.00
39141;BME280;24875;48.436;10.298;2023-10-09T13:10:50;96775.34;;;22.35;100.00
39141;BME280;24875;48.436;10.298;2023-10-09T13:13:26;96784.81;;;22.37;100.00
39141;BME280;24875;48.436;10.298;2023-10-09T13:16:05;96786.59;;;22.32;100.00